createdAt,value
2022-10-14T00:01:21.385Z,100653.75
2022-10-14T00:03:50.317Z,100647.75
2022-10-14T00:06:24.910Z,100651.28
2022-10-14T00:08:52.840Z,100652.16
2022-10-14T00:11:29.147Z,100652.06
2022-10-14T00:13:59.939Z,100655.28
2022-10-14T00:16:33.251Z,100650.09
2022-10-14T00:19:01.531Z,100653.84
2022-10-14T00:21:29.853Z,100645.78
2022-10-14T00:23:58.144Z,100650.19
2022-10-14T00:26:30.933Z,100650.41
2022-10-14T00:29:00.433Z,100643.53
2022-10-14T00:31:32.680Z,100653.84
2022-10-14T00:34:00.464Z,100652.16
2022-10-14T00:36:28.028Z,100650.41
2022-10-14T00:38:55.599Z,100649.53
2022-10-14T00:41:28.512Z,100646.25
2022-10-14T00:44:04.322Z,100650.59
2022-10-14T00:46:38.154Z,100642.13
2022-10-14T00:49:31.713Z,100645.16
2022-10-14T00:52:03.462Z,100638.59
2022-10-14T00:54:47.863Z,100648.63
2022-10-14T00:57:16.950Z,100644.19
2022-10-14T00:59:44.560Z,100645.88
2022-10-14T01:02:12.203Z,100647.34
2022-10-14T01:04:43.267Z,100657.84
2022-10-14T01:07:13.921Z,100664.06
2022-10-14T01:09:50.730Z,100659.63
2022-10-14T01:12:29.012Z,100660.63
2022-10-14T01:15:05.070Z,100662.47
2022-10-14T01:17:45.282Z,100641.94
2022-10-14T01:20:31.566Z,100655.91
2022-10-14T01:23:36.152Z,100654.13
2022-10-14T01:26:29.338Z,100656.41
2022-10-14T01:28:56.804Z,100653.13
2022-10-14T01:31:32.704Z,100648.72
2022-10-14T01:34:03.105Z,100646.47
2022-10-14T01:36:39.551Z,100645.84
2022-10-14T01:39:18.383Z,100631.94
2022-10-14T01:41:51.439Z,100642.16
2022-10-14T01:44:23.405Z,100634.41
2022-10-14T01:46:55.586Z,100629.94
2022-10-14T01:49:33.038Z,100641.06
2022-10-14T01:52:10.414Z,100643.41
2022-10-14T01:54:42.937Z,100632.78
2022-10-14T01:57:19.252Z,100643.00
2022-10-14T01:59:48.031Z,100633.50
2022-10-14T02:02:15.607Z,100621.50
2022-10-14T02:04:43.046Z,100630.16
2022-10-14T02:07:26.180Z,100638.69
2022-10-14T02:10:22.425Z,100632.53
2022-10-14T02:13:17.507Z,100639.41
2022-10-14T02:16:08.542Z,100648.13
2022-10-14T02:18:46.046Z,100642.72
2022-10-14T02:21:38.542Z,100635.47
2022-10-14T02:24:36.914Z,100635.84
2022-10-14T02:27:09.639Z,100640.44
2022-10-14T02:29:40.497Z,100629.94
2022-10-14T02:32:09.214Z,100641.59
2022-10-14T02:34:39.194Z,100634.94
2022-10-14T02:37:12.551Z,100643.38
2022-10-14T02:39:46.991Z,100646.41
2022-10-14T02:42:14.627Z,100635.16
2022-10-14T02:44:56.094Z,100640.97
2022-10-14T02:47:24.654Z,100642.91
2022-10-14T02:49:52.539Z,100642.47
2022-10-14T02:52:20.893Z,100634.56
2022-10-14T02:54:48.526Z,100639.66
2022-10-14T02:57:16.889Z,100637.63
2022-10-14T02:59:44.437Z,100637.91
2022-10-14T03:02:11.948Z,100626.97
2022-10-14T03:04:41.634Z,100646.88
2022-10-14T03:07:10.202Z,100638.50
2022-10-14T03:09:43.515Z,100626.22
2022-10-14T03:12:11.477Z,100640.72
2022-10-14T03:14:39.341Z,100639.75
2022-10-14T03:17:09.583Z,100643.94
2022-10-14T03:19:37.415Z,100633.31
2022-10-14T03:22:05.082Z,100623.38
2022-10-14T03:24:33.998Z,100639.97
2022-10-14T03:27:36.958Z,100633.66
2022-10-14T03:30:09.709Z,100639.19
2022-10-14T03:32:45.317Z,100635.13
2022-10-14T03:35:31.458Z,100628.03
2022-10-14T03:38:03.035Z,100639.22
2022-10-14T03:40:34.143Z,100631.16
2022-10-14T03:43:04.064Z,100635.56
2022-10-14T03:45:40.859Z,100633.91
2022-10-14T03:48:11.247Z,100632.25
2022-10-14T03:50:40.537Z,100629.41
2022-10-14T03:53:09.536Z,100630.72
2022-10-14T03:55:38.150Z,100632.69
2022-10-14T03:58:07.053Z,100625.41
2022-10-14T04:00:35.981Z,100626.41
2022-10-14T04:03:22.313Z,100634.69
2022-10-14T04:05:49.866Z,100635.63
2022-10-14T04:08:21.879Z,100627.97
2022-10-14T04:11:02.700Z,100632.03
2022-10-14T04:13:37.158Z,100637.91
2022-10-14T04:16:07.243Z,100624.63
2022-10-14T04:18:39.593Z,100631.59
2022-10-14T04:21:12.485Z,100629.72
2022-10-14T04:23:42.553Z,100635.06
2022-10-14T04:26:16.343Z,100629.19
2022-10-14T04:28:46.668Z,100637.91
2022-10-14T04:31:23.945Z,100628.16
2022-10-14T04:33:57.271Z,100625.88
2022-10-14T04:36:31.204Z,100629.94
2022-10-14T04:39:01.038Z,100632.69
2022-10-14T04:41:29.469Z,100627.72
2022-10-14T04:43:59.525Z,100628.81
2022-10-14T04:46:39.243Z,100624.25
2022-10-14T04:49:09.086Z,100625.53
2022-10-14T04:51:40.960Z,100628.78
2022-10-14T04:54:32.356Z,100624.28
2022-10-14T04:57:01.278Z,100634.38
2022-10-14T04:59:30.067Z,100626.56
2022-10-14T05:02:14.988Z,100634.84
2022-10-14T05:04:49.446Z,100629.97
2022-10-14T05:07:17.706Z,100633.28
2022-10-14T05:09:50.403Z,100634.28
2022-10-14T05:12:28.653Z,100631.94
2022-10-14T05:15:00.487Z,100624.34
2022-10-14T05:17:37.738Z,100623.25
2022-10-14T05:20:07.290Z,100619.13
2022-10-14T05:22:36.353Z,100630.69
2022-10-14T05:25:05.255Z,100625.56
2022-10-14T05:27:33.005Z,100628.09
2022-10-14T05:30:02.758Z,100621.44
2022-10-14T05:32:31.191Z,100632.19
2022-10-14T05:35:04.083Z,100628.66
2022-10-14T05:37:37.042Z,100619.13
2022-10-14T05:40:05.153Z,100624.91
2022-10-14T05:42:36.060Z,100622.44
2022-10-14T05:45:05.057Z,100626.00
2022-10-14T05:47:35.191Z,100621.28
2022-10-14T05:50:12.675Z,100626.75
2022-10-14T05:52:43.560Z,100618.13
2022-10-14T05:55:19.940Z,100614.69
2022-10-14T05:57:48.986Z,100620.00
2022-10-14T06:00:25.577Z,100622.97
2022-10-14T06:03:01.311Z,100618.44
2022-10-14T06:05:29.011Z,100624.97
2022-10-14T06:07:56.563Z,100624.75
2022-10-14T06:10:24.079Z,100618.81
2022-10-14T06:12:51.552Z,100608.09
2022-10-14T06:15:19.198Z,100610.19
2022-10-14T06:17:46.775Z,100613.19
2022-10-14T06:20:14.995Z,100605.25
2022-10-14T06:22:42.571Z,100611.63
2022-10-14T06:25:12.399Z,100607.97
2022-10-14T06:27:42.082Z,100614.25
2022-10-14T06:30:10.447Z,100618.31
2022-10-14T06:32:40.378Z,100607.56
2022-10-14T06:35:08.298Z,100606.13
2022-10-14T06:37:36.528Z,100611.59
2022-10-14T06:40:05.407Z,100600.31
2022-10-14T06:42:34.190Z,100615.84
2022-10-14T06:45:01.942Z,100607.78
2022-10-14T06:47:31.713Z,100609.69
2022-10-14T06:49:59.306Z,100602.56
2022-10-14T06:52:26.745Z,100598.25
2022-10-14T06:54:54.327Z,100603.19
2022-10-14T06:57:21.894Z,100608.72
2022-10-14T06:59:49.450Z,100617.81
2022-10-14T07:02:17.173Z,100613.84
2022-10-14T07:04:44.722Z,100621.69
2022-10-14T07:07:12.145Z,100610.25
2022-10-14T07:09:39.638Z,100611.75
2022-10-14T07:12:07.230Z,100623.53
2022-10-14T07:14:35.990Z,100617.47
2022-10-14T07:17:03.855Z,100614.38
2022-10-14T07:19:31.289Z,100624.72
2022-10-14T07:21:58.862Z,100628.13
2022-10-14T07:24:26.349Z,100624.16
2022-10-14T07:26:54.091Z,100625.31
2022-10-14T07:29:21.582Z,100626.88
2022-10-14T07:31:49.111Z,100618.97
2022-10-14T07:34:16.518Z,100620.97
2022-10-14T07:36:43.998Z,100622.19
2022-10-14T07:39:11.739Z,100620.75
2022-10-14T07:41:40.172Z,100616.19
2022-10-14T07:44:09.675Z,100610.78
2022-10-14T07:46:40.616Z,100615.06
2022-10-14T07:49:14.692Z,100605.63
2022-10-14T07:51:43.073Z,100612.72
2022-10-14T07:54:23.531Z,100609.97
2022-10-14T07:56:51.589Z,100608.63
2022-10-14T07:59:20.811Z,100610.94
2022-10-14T08:01:49.902Z,100597.84
2022-10-14T08:04:18.165Z,100600.19
2022-10-14T08:06:48.629Z,100599.94
2022-10-14T08:09:17.642Z,100600.66
2022-10-14T08:11:46.032Z,100584.63
2022-10-14T08:14:14.340Z,100591.47
2022-10-14T08:16:41.843Z,100586.56
2022-10-14T08:19:14.618Z,100592.09
2022-10-14T08:21:43.733Z,100582.88
2022-10-14T08:24:11.698Z,100579.16
2022-10-14T08:26:48.322Z,100578.84
2022-10-14T08:29:15.749Z,100569.53
2022-10-14T08:31:43.263Z,100563.38
2022-10-14T08:34:11.333Z,100571.94
2022-10-14T08:36:39.009Z,100569.84
2022-10-14T08:39:07.503Z,100565.91
2022-10-14T08:42:13.198Z,100576.59
2022-10-14T08:44:55.683Z,100571.41
2022-10-14T08:47:34.857Z,100568.28
2022-10-14T08:50:14.691Z,100562.75
2022-10-14T08:52:50.423Z,100557.47
2022-10-14T08:55:33.914Z,100552.72
2022-10-14T08:58:23.385Z,100554.38
2022-10-14T09:00:52.992Z,100551.81
2022-10-14T09:03:33.152Z,100552.50
2022-10-14T09:06:13.140Z,100546.34
2022-10-14T09:08:44.998Z,100549.84
2022-10-14T09:11:18.717Z,100546.53
2022-10-14T09:13:51.068Z,100551.50
2022-10-14T09:16:27.422Z,100542.97
2022-10-14T09:19:00.515Z,100544.78
2022-10-14T09:21:47.821Z,100547.00
2022-10-14T09:24:37.382Z,100541.69
2022-10-14T09:27:06.737Z,100543.69
2022-10-14T09:29:43.323Z,100549.41
2022-10-14T09:32:27.901Z,100535.94
2022-10-14T09:34:57.357Z,100535.56
2022-10-14T09:37:33.703Z,100530.84
2022-10-14T09:40:13.357Z,100532.50
2022-10-14T09:43:08.465Z,100533.25
2022-10-14T09:45:56.632Z,100533.22
2022-10-14T09:48:44.456Z,100529.47
2022-10-14T09:51:22.631Z,100524.53
2022-10-14T09:53:53.995Z,100527.91
2022-10-14T09:56:42.146Z,100535.94
2022-10-14T09:59:21.676Z,100518.72
2022-10-14T10:01:54.471Z,100535.75
2022-10-14T10:04:47.892Z,100527.38
2022-10-14T10:07:35.245Z,100527.78
2022-10-14T10:10:18.721Z,100533.94
2022-10-14T10:12:47.289Z,100534.63
2022-10-14T10:15:21.623Z,100532.53
2022-10-14T10:17:50.113Z,100523.22
2022-10-14T10:20:28.674Z,100542.63
2022-10-14T10:22:57.013Z,100538.13
2022-10-14T10:25:28.667Z,100548.28
2022-10-14T10:27:59.740Z,100558.56
2022-10-14T10:30:32.415Z,100547.28
2022-10-14T10:33:03.129Z,100554.59
2022-10-14T10:35:45.400Z,100557.53
2022-10-14T10:38:31.979Z,100548.72
2022-10-14T10:41:20.656Z,100560.22
2022-10-14T10:44:12.168Z,100560.81
2022-10-14T10:47:15.397Z,100556.78
2022-10-14T10:50:10.174Z,100559.41
2022-10-14T10:53:23.046Z,100545.69
2022-10-14T10:56:11.647Z,100548.94
2022-10-14T10:59:01.786Z,100541.94
2022-10-14T11:01:49.152Z,100540.56
2022-10-14T11:04:35.292Z,100544.78
2022-10-14T11:07:35.358Z,100529.34
2022-10-14T11:10:27.077Z,100534.69
2022-10-14T11:13:36.904Z,100541.72
2022-10-14T11:16:10.089Z,100529.09
2022-10-14T11:18:45.653Z,100533.88
2022-10-14T11:21:22.972Z,100522.75
2022-10-14T11:24:04.879Z,100526.56
2022-10-14T11:26:46.653Z,100523.94
2022-10-14T11:29:18.791Z,100529.75
2022-10-14T11:32:04.073Z,100536.72
2022-10-14T11:35:10.065Z,100533.13
2022-10-14T11:38:03.756Z,100532.22
2022-10-14T11:40:51.097Z,100537.97
2022-10-14T11:44:02.509Z,100527.75
2022-10-14T11:46:36.602Z,100532.56
2022-10-14T11:49:12.495Z,100535.25
2022-10-14T11:51:49.270Z,100528.50
2022-10-14T11:54:24.995Z,100530.19
2022-10-14T11:57:00.829Z,100531.16
2022-10-14T11:59:46.358Z,100533.84
2022-10-14T12:02:45.189Z,100527.09
2022-10-14T12:05:51.058Z,100529.19
2022-10-14T12:08:46.279Z,100534.72
2022-10-14T12:11:44.358Z,100532.78
2022-10-14T12:14:29.666Z,100533.88
2022-10-14T12:17:00.136Z,100528.81
2022-10-14T12:19:29.568Z,100524.09
2022-10-14T12:22:23.744Z,100524.13
2022-10-14T12:24:57.510Z,100533.47
2022-10-14T12:27:28.578Z,100527.22
2022-10-14T12:29:58.647Z,100543.91
2022-10-14T12:32:27.963Z,100530.03
2022-10-14T12:35:41.563Z,100537.22
2022-10-14T12:38:12.494Z,100537.66
2022-10-14T12:40:40.498Z,100537.38
2022-10-14T12:43:27.617Z,100532.69
2022-10-14T12:46:10.927Z,100531.31
2022-10-14T12:48:47.091Z,100524.16
2022-10-14T12:51:24.619Z,100531.53
2022-10-14T12:54:05.031Z,100520.41
2022-10-14T12:56:37.734Z,100523.72
2022-10-14T12:59:08.746Z,100531.91
2022-10-14T13:01:38.514Z,100529.84
2022-10-14T13:04:19.962Z,100539.09
2022-10-14T13:07:43.316Z,100531.03
2022-10-14T13:10:35.994Z,100533.41
2022-10-14T13:13:42.311Z,100538.22
2022-10-14T13:16:25.646Z,100531.25
2022-10-14T13:18:59.925Z,100542.28
2022-10-14T13:21:39.114Z,100536.78
2022-10-14T13:24:38.645Z,100542.19
2022-10-14T13:27:47.910Z,100536.91
2022-10-14T13:30:37.374Z,100533.34
2022-10-14T13:33:10.697Z,100528.13
2022-10-14T13:36:00.969Z,100535.69
2022-10-14T13:38:28.721Z,100536.84
2022-10-14T13:40:58.379Z,100526.63
2022-10-14T13:43:39.172Z,100535.38
2022-10-14T13:46:18.102Z,100547.09
2022-10-14T13:48:48.718Z,100537.78
2022-10-14T13:51:24.607Z,100527.88
2022-10-14T13:54:16.339Z,100536.84
2022-10-14T13:56:44.380Z,100531.09
2022-10-14T13:59:39.275Z,100541.66
2022-10-14T14:02:21.549Z,100537.28
2022-10-14T14:04:56.051Z,100535.91
2022-10-14T14:10:20.016Z,100536.56
2022-10-14T14:12:47.763Z,100535.44
2022-10-14T14:15:26.990Z,100542.50
2022-10-14T14:17:54.905Z,100535.13
2022-10-14T14:20:25.397Z,100534.97
2022-10-14T14:22:54.282Z,100528.66
2022-10-14T14:25:34.096Z,100540.25
2022-10-14T14:28:05.985Z,100521.13
2022-10-14T14:30:39.107Z,100525.34
2022-10-14T14:33:16.891Z,100528.16
2022-10-14T14:35:54.471Z,100534.03
2022-10-14T14:38:28.626Z,100531.13
2022-10-14T14:41:06.358Z,100535.53
2022-10-14T14:43:47.375Z,100541.31
2022-10-14T14:46:22.074Z,100541.41
2022-10-14T14:48:54.924Z,100537.16
2022-10-14T14:51:23.787Z,100533.38
2022-10-14T14:53:55.869Z,100542.13
2022-10-14T14:56:33.057Z,100539.56
2022-10-14T14:59:19.036Z,100530.81
2022-10-14T15:01:46.661Z,100527.78
2022-10-14T15:04:34.950Z,100528.31
2022-10-14T15:07:15.330Z,100521.69
2022-10-14T15:09:53.078Z,100532.09
2022-10-14T15:12:25.795Z,100534.53
2022-10-14T15:14:55.758Z,100524.06
2022-10-14T15:17:34.308Z,100530.41
2022-10-14T15:20:04.545Z,100528.59
2022-10-14T15:22:37.276Z,100519.75
2022-10-14T15:25:25.658Z,100530.66
2022-10-14T15:27:55.869Z,100518.13
2022-10-14T15:30:41.199Z,100526.41
2022-10-14T15:33:23.141Z,100524.00
2022-10-14T15:35:57.534Z,100522.78
2022-10-14T15:38:26.332Z,100532.19
2022-10-14T15:40:53.941Z,100524.34
2022-10-14T15:43:24.225Z,100531.69
2022-10-14T15:46:16.785Z,100524.56
2022-10-14T15:48:50.914Z,100533.44
2022-10-14T15:51:23.670Z,100535.00
2022-10-14T15:53:52.039Z,100534.03
2022-10-14T15:56:21.259Z,100520.81
2022-10-14T15:58:49.337Z,100515.75
2022-10-14T16:01:20.748Z,100528.97
2022-10-14T16:03:49.844Z,100526.25
2022-10-14T16:06:17.348Z,100534.91
2022-10-14T16:08:46.603Z,100533.16
2022-10-14T16:11:29.269Z,100537.63
2022-10-14T16:13:57.523Z,100526.16
2022-10-14T16:16:34.024Z,100535.31
2022-10-14T16:19:02.494Z,100541.06
2022-10-14T16:21:30.074Z,100525.34
2022-10-14T16:23:58.965Z,100535.00
2022-10-14T16:26:26.763Z,100541.81
2022-10-14T16:28:54.499Z,100546.94
2022-10-14T16:31:22.002Z,100536.34
2022-10-14T16:33:57.269Z,100546.00
2022-10-14T16:36:26.296Z,100548.78
2022-10-14T16:38:57.180Z,100554.97
2022-10-14T16:41:28.026Z,100550.72
2022-10-14T16:43:55.630Z,100548.94
2022-10-14T16:46:46.118Z,100539.31
2022-10-14T16:49:14.436Z,100544.84
2022-10-14T16:51:43.461Z,100546.59
2022-10-14T16:54:11.978Z,100541.47
2022-10-14T16:56:54.850Z,100532.56
2022-10-14T16:59:23.544Z,100543.16
2022-10-14T17:01:51.902Z,100535.00
2022-10-14T17:04:23.352Z,100540.44
2022-10-14T17:06:58.514Z,100535.22
2022-10-14T17:09:26.219Z,100537.88
2022-10-14T17:11:55.017Z,100530.47
2022-10-14T17:14:24.176Z,100528.25
2022-10-14T17:16:52.583Z,100533.56
2022-10-14T17:19:20.402Z,100525.75
2022-10-14T17:21:48.871Z,100519.66
2022-10-14T17:24:17.119Z,100537.97
2022-10-14T17:26:47.347Z,100533.78
2022-10-14T17:29:15.257Z,100531.06
2022-10-14T17:31:46.164Z,100536.41
2022-10-14T17:34:13.946Z,100532.81
2022-10-14T17:36:41.773Z,100539.97
2022-10-14T17:39:16.477Z,100545.72
2022-10-14T17:41:48.947Z,100539.63
2022-10-14T17:44:16.361Z,100541.72
2022-10-14T17:46:44.006Z,100532.09
2022-10-14T17:49:12.502Z,100533.69
2022-10-14T17:51:40.006Z,100534.03
2022-10-14T17:54:10.897Z,100530.56
2022-10-14T17:56:39.449Z,100528.81
2022-10-14T17:59:10.558Z,100540.19
2022-10-14T18:04:25.771Z,100537.47
2022-10-14T18:06:54.296Z,100541.72
2022-10-14T18:09:21.935Z,100544.28
2022-10-14T18:14:40.692Z,100536.53
2022-10-14T18:17:13.197Z,100540.59
2022-10-14T18:19:41.961Z,100533.56
2022-10-14T18:22:11.211Z,100538.97
2022-10-14T18:24:39.442Z,100536.28
2022-10-14T18:27:07.114Z,100547.56
2022-10-14T18:29:34.694Z,100547.56
2022-10-14T18:32:02.096Z,100552.00
2022-10-14T18:34:29.621Z,100537.22
2022-10-14T18:36:57.138Z,100533.69
2022-10-14T18:39:24.739Z,100546.78
2022-10-14T18:41:52.308Z,100537.06
2022-10-14T18:44:19.741Z,100536.81
2022-10-14T18:46:47.736Z,100547.66
2022-10-14T18:49:15.410Z,100543.97
2022-10-14T18:51:43.565Z,100544.28
2022-10-14T18:54:17.867Z,100544.28
2022-10-14T18:56:45.677Z,100544.13
2022-10-14T18:59:19.311Z,100555.19
2022-10-14T19:01:50.589Z,100554.22
2022-10-14T19:04:19.344Z,100537.06
2022-10-14T19:06:49.118Z,100544.69
2022-10-14T19:09:24.141Z,100547.25
2022-10-14T19:11:52.527Z,100539.78
2022-10-14T19:14:22.343Z,100536.09
2022-10-14T19:16:49.982Z,100549.72
2022-10-14T19:19:20.057Z,100539.47
2022-10-14T19:21:50.501Z,100547.16
2022-10-14T19:24:18.202Z,100541.28
2022-10-14T19:26:50.371Z,100544.50
2022-10-14T19:29:18.318Z,100544.09
2022-10-14T19:31:45.821Z,100534.41
2022-10-14T19:34:16.125Z,100538.56
2022-10-14T19:36:45.563Z,100552.19
2022-10-14T19:39:15.531Z,100555.22
2022-10-14T19:41:44.469Z,100545.50
2022-10-14T19:44:13.868Z,100554.69
2022-10-14T19:46:42.002Z,100551.78
2022-10-14T19:49:12.811Z,100546.69
2022-10-14T19:51:40.555Z,100560.44
2022-10-14T19:54:08.011Z,100548.72
2022-10-14T19:56:35.605Z,100556.31
2022-10-14T19:59:03.157Z,100554.16
2022-10-14T20:01:31.315Z,100556.44
2022-10-14T20:04:02.845Z,100561.66
2022-10-14T20:06:33.871Z,100555.03
2022-10-14T20:09:02.365Z,100560.84
2022-10-14T20:11:30.041Z,100556.28
2022-10-14T20:13:57.890Z,100564.63
2022-10-14T20:16:27.129Z,100550.59
2022-10-14T20:18:55.577Z,100560.84
2022-10-14T20:21:23.874Z,100565.88
2022-10-14T20:23:51.325Z,100546.72
2022-10-14T20:26:21.002Z,100561.28
2022-10-14T20:28:49.763Z,100559.50
2022-10-14T20:31:20.379Z,100548.81
2022-10-14T20:33:48.836Z,100553.25
2022-10-14T20:36:19.745Z,100550.50
2022-10-14T20:38:48.256Z,100564.28
2022-10-14T20:41:19.114Z,100549.28
2022-10-14T20:43:47.784Z,100543.94
2022-10-14T20:46:16.009Z,100550.66
2022-10-14T20:48:44.201Z,100560.88
2022-10-14T20:51:17.958Z,100555.69
2022-10-14T20:53:45.591Z,100558.13
2022-10-14T20:56:13.900Z,100543.22
2022-10-14T20:58:41.558Z,100553.56
2022-10-14T21:01:08.963Z,100559.53
2022-10-14T21:03:36.820Z,100550.28
2022-10-14T21:06:06.811Z,100549.13
2022-10-14T21:08:34.999Z,100544.78
2022-10-14T21:11:06.181Z,100548.34
2022-10-14T21:13:35.812Z,100565.63
2022-10-14T21:16:16.640Z,100544.13
2022-10-14T21:18:57.602Z,100552.66
2022-10-14T21:21:28.114Z,100564.25
2022-10-14T21:23:56.324Z,100558.41
2022-10-14T21:26:24.138Z,100555.25
2022-10-14T21:28:52.031Z,100570.88
2022-10-14T21:31:20.482Z,100572.16
2022-10-14T21:33:53.853Z,100566.00
2022-10-14T21:36:21.446Z,100563.16
2022-10-14T21:38:48.915Z,100575.28
2022-10-14T21:41:16.663Z,100572.50
2022-10-14T21:43:44.099Z,100578.72
2022-10-14T21:46:14.438Z,100576.94
2022-10-14T21:48:43.422Z,100576.22
2022-10-14T21:51:13.734Z,100579.06
2022-10-14T21:53:44.853Z,100585.25
2022-10-14T21:56:13.966Z,100569.72
2022-10-14T21:58:41.717Z,100579.78
2022-10-14T22:01:15.369Z,100587.75
2022-10-14T22:03:43.948Z,100574.09
2022-10-14T22:06:16.569Z,100582.09
2022-10-14T22:08:46.802Z,100581.59
2022-10-14T22:11:22.675Z,100578.59
2022-10-14T22:13:51.766Z,100576.63
2022-10-14T22:16:19.955Z,100579.31
2022-10-14T22:18:50.599Z,100582.91
2022-10-14T22:21:21.516Z,100573.56
2022-10-14T22:23:50.222Z,100588.31
2022-10-14T22:26:23.087Z,100583.38
2022-10-14T22:28:56.732Z,100574.97
2022-10-14T22:31:24.262Z,100575.41
2022-10-14T22:33:51.703Z,100573.13
2022-10-14T22:36:24.931Z,100582.94
2022-10-14T22:38:53.493Z,100579.56
2022-10-14T22:41:22.642Z,100587.25
2022-10-14T22:43:52.518Z,100577.03
2022-10-14T22:46:23.702Z,100582.13
2022-10-14T22:48:58.719Z,100576.41
2022-10-14T22:51:32.243Z,100588.59
2022-10-14T22:53:59.976Z,100581.13
2022-10-14T22:56:29.348Z,100572.44
2022-10-14T22:58:59.147Z,100582.53
2022-10-14T23:01:28.054Z,100585.09
2022-10-14T23:03:57.459Z,100580.50
2022-10-14T23:06:25.472Z,100580.56
2022-10-14T23:08:54.479Z,100576.19
2022-10-14T23:11:24.422Z,100580.41
2022-10-14T23:13:52.128Z,100582.47
2022-10-14T23:16:22.492Z,100587.75
2022-10-14T23:18:50.813Z,100573.16
2022-10-14T23:21:19.675Z,100574.06
2022-10-14T23:23:48.995Z,100567.16
2022-10-14T23:26:21.351Z,100578.28
2022-10-14T23:28:53.778Z,100580.94
2022-10-14T23:31:28.020Z,100567.16
2022-10-14T23:33:58.286Z,100579.34
2022-10-14T23:36:26.446Z,100574.94
2022-10-14T23:38:53.979Z,100577.56
2022-10-14T23:41:23.114Z,100575.13
2022-10-14T23:43:52.582Z,100575.66
2022-10-14T23:46:20.735Z,100573.16
2022-10-14T23:48:55.817Z,100580.25
2022-10-14T23:51:35.402Z,100574.22
2022-10-14T23:54:03.166Z,100570.63
2022-10-14T23:56:30.661Z,100575.00
2022-10-14T23:58:58.140Z,100574.31
